createdAt,value
2016-11-20T00:00:48.808Z,6.62
2016-11-20T00:01:48.515Z,6.49
2016-11-20T00:02:48.845Z,6.51
2016-11-20T00:03:48.570Z,6.56
2016-11-20T00:04:48.894Z,6.49
2016-11-20T00:05:48.572Z,6.57
2016-11-20T00:06:48.270Z,6.48
2016-11-20T00:07:48.615Z,6.59
2016-11-20T00:08:48.627Z,6.63
2016-11-20T00:09:48.669Z,6.62
2016-11-20T00:10:48.330Z,6.46
2016-11-20T00:11:48.378Z,6.52
2016-11-20T00:12:48.380Z,6.49
2016-11-20T00:13:48.692Z,6.56
2016-11-20T00:14:48.740Z,6.62
2016-11-20T00:15:48.405Z,6.62
2016-11-20T00:16:48.732Z,6.52
2016-11-20T00:17:48.438Z,6.63
2016-11-20T00:18:49.079Z,6.64
2016-11-20T00:19:49.097Z,6.7
2016-11-20T00:20:48.795Z,6.81
2016-11-20T00:21:48.492Z,6.75
2016-11-20T00:22:48.509Z,6.74
2016-11-20T00:23:48.835Z,6.66
2016-11-20T00:24:48.542Z,6.6
2016-11-20T00:25:48.556Z,6.52
2016-11-20T00:26:48.882Z,6.54
2016-11-20T00:27:49.213Z,6.54
2016-11-20T00:28:48.600Z,6.62
2016-11-20T00:29:48.613Z,6.54
2016-11-20T00:30:48.943Z,6.6
2016-11-20T00:31:49.280Z,6.45
2016-11-20T00:32:48.659Z,6.49
2016-11-20T00:33:48.997Z,6.54
2016-11-20T00:34:49.342Z,6.66
2016-11-20T00:35:48.734Z,6.74
2016-11-20T00:36:49.358Z,6.75
2016-11-20T00:37:49.060Z,6.7
2016-11-20T00:38:49.059Z,6.74
2016-11-20T00:39:48.764Z,6.6
2016-11-20T00:40:48.778Z,6.54
2016-11-20T00:41:49.102Z,6.52
2016-11-20T00:42:49.125Z,6.51
2016-11-20T00:43:48.822Z,6.44
2016-11-20T00:44:49.161Z,6.38
2016-11-20T00:45:49.163Z,6.52
2016-11-20T00:46:49.205Z,6.52
2016-11-20T00:47:49.215Z,6.67
2016-11-20T00:48:49.227Z,6.56
2016-11-20T00:49:49.221Z,6.56
2016-11-20T00:50:48.924Z,6.59
2016-11-20T00:51:48.939Z,6.46
2016-11-20T00:52:48.950Z,6.54
2016-11-20T00:53:49.284Z,6.57
2016-11-20T00:54:49.300Z,6.54
2016-11-20T00:55:49.315Z,6.67
2016-11-20T00:56:49.012Z,6.63
2016-11-20T00:57:49.341Z,6.49
2016-11-20T00:58:49.361Z,6.45
2016-11-20T00:59:49.384Z,6.31
2016-11-20T01:00:49.075Z,6.33
2016-11-20T01:01:49.402Z,6.31
2016-11-20T01:02:49.438Z,6.24
2016-11-20T01:03:49.432Z,6.28
2016-11-20T01:04:49.446Z,6.31
2016-11-20T01:05:49.496Z,6.26
2016-11-20T01:06:49.795Z,6.24
2016-11-20T01:07:49.489Z,6.24
2016-11-20T01:08:49.193Z,6.28
2016-11-20T01:09:49.524Z,6.39
2016-11-20T01:10:49.535Z,6.39
2016-11-20T01:11:49.870Z,6.44
2016-11-20T01:12:49.575Z,6.41
2016-11-20T01:13:49.586Z,6.42
2016-11-20T01:14:49.278Z,6.48
2016-11-20T01:15:49.921Z,6.36
2016-11-20T01:16:49.625Z,6.36
2016-11-20T01:17:49.327Z,6.38
2016-11-20T01:18:49.336Z,6.31
2016-11-20T01:19:49.359Z,6.45
2016-11-20T01:20:50.003Z,6.39
2016-11-20T01:21:50.017Z,6.42
2016-11-20T01:22:50.026Z,6.44
2016-11-20T01:23:49.726Z,6.41
2016-11-20T01:24:50.069Z,6.42
2016-11-20T01:25:49.751Z,6.38
2016-11-20T01:26:49.771Z,6.39
2016-11-20T01:27:49.787Z,6.38
2016-11-20T01:28:49.956Z,6.33
2016-11-20T01:29:50.407Z,6.35
2016-11-20T01:30:50.159Z,6.22
2016-11-20T01:31:49.851Z,6.16
2016-11-20T01:32:49.549Z,6.08
2016-11-20T01:33:49.874Z,6.28
2016-11-20T01:34:49.888Z,6.16
2016-11-20T01:35:49.588Z,6.19
2016-11-20T01:36:49.920Z,6.16
2016-11-20T01:37:49.621Z,6.27
2016-11-20T01:38:50.245Z,6.27
2016-11-20T01:39:49.986Z,6.33
2016-11-20T01:40:49.977Z,6.36
2016-11-20T01:41:49.998Z,6.38
2016-11-20T01:42:50.010Z,6.49
2016-11-20T01:43:49.711Z,6.52
2016-11-20T01:44:50.037Z,6.44
2016-11-20T01:45:50.051Z,6.56
2016-11-20T01:46:49.749Z,6.52
2016-11-20T01:47:50.086Z,6.41
2016-11-20T01:48:50.101Z,6.31
2016-11-20T01:49:50.474Z,6.38
2016-11-20T01:50:50.140Z,6.45
2016-11-20T01:51:50.141Z,6.41
2016-11-20T01:52:49.848Z,6.48
2016-11-20T01:53:50.195Z,6.57
2016-11-20T01:54:50.207Z,6.44
2016-11-20T01:55:50.202Z,6.38
2016-11-20T01:56:50.218Z,6.35
2016-11-20T01:57:50.230Z,6.44
2016-11-20T01:58:50.246Z,6.45
2016-11-20T01:59:49.944Z,6.41
2016-11-20T02:00:49.965Z,6.38
2016-11-20T02:01:49.970Z,6.39
2016-11-20T02:02:50.618Z,6.42
2016-11-20T02:03:50.638Z,6.51
2016-11-20T02:04:50.017Z,6.56
2016-11-20T02:05:50.344Z,6.51
2016-11-20T02:06:50.363Z,6.52
2016-11-20T02:07:50.702Z,6.75
2016-11-20T02:08:50.390Z,6.75
2016-11-20T02:09:50.727Z,6.74
2016-11-20T02:10:50.105Z,6.54
2016-11-20T02:11:50.440Z,6.54
2016-11-20T02:12:50.448Z,6.52
2016-11-20T02:13:50.463Z,6.56
2016-11-20T02:14:50.797Z,6.31
2016-11-20T02:15:50.497Z,6.35
2016-11-20T02:16:50.517Z,6.48
2016-11-20T02:17:50.214Z,6.46
2016-11-20T02:18:50.592Z,6.48
2016-11-20T02:19:50.240Z,6.48
2016-11-20T02:20:50.253Z,6.39
2016-11-20T02:21:50.589Z,6.41
2016-11-20T02:22:50.606Z,6.39
2016-11-20T02:23:50.620Z,6.51
2016-11-20T02:24:50.633Z,6.44
2016-11-20T02:25:50.329Z,6.35
2016-11-20T02:26:50.677Z,6.3
2016-11-20T02:27:50.361Z,6.33
2016-11-20T02:28:50.373Z,6.41
2016-11-20T02:29:50.704Z,6.44
2016-11-20T02:30:50.719Z,6.59
2016-11-20T02:31:50.437Z,6.56
2016-11-20T02:32:50.435Z,6.64
2016-11-20T02:33:51.079Z,6.69
2016-11-20T02:34:50.776Z,6.56
2016-11-20T02:35:51.110Z,6.44
2016-11-20T02:36:50.811Z,6.51
2016-11-20T02:37:50.507Z,6.54
2016-11-20T02:38:50.838Z,6.54
2016-11-20T02:39:50.852Z,6.54
2016-11-20T02:40:50.550Z,6.44
2016-11-20T02:41:50.900Z,6.39
2016-11-20T02:42:50.894Z,6.41
2016-11-20T02:43:50.907Z,6.44
2016-11-20T02:44:51.237Z,6.46
2016-11-20T02:45:50.940Z,6.39
2016-11-20T02:46:50.663Z,6.3
2016-11-20T02:47:50.971Z,6.35
2016-11-20T02:48:51.297Z,6.31
2016-11-20T02:49:50.998Z,6.41
2016-11-20T02:50:51.330Z,6.16
2016-11-20T02:51:50.716Z,6.11
2016-11-20T02:52:50.731Z,6.24
2016-11-20T02:53:51.060Z,6.28
2016-11-20T02:54:50.760Z,6.22
2016-11-20T02:55:50.773Z,6.12
2016-11-20T02:56:51.103Z,6.07
2016-11-20T02:57:51.114Z,6.2
2016-11-20T02:58:50.825Z,6.09
2016-11-20T02:59:50.836Z,5.98
2016-11-20T03:00:50.848Z,6.11
2016-11-20T03:01:51.175Z,6.12
2016-11-20T03:02:51.193Z,6.28
2016-11-20T03:03:51.207Z,6.35
2016-11-20T03:04:51.537Z,6.39
2016-11-20T03:05:51.233Z,6.31
2016-11-20T03:06:51.250Z,6.44
2016-11-20T03:07:51.266Z,6.45
2016-11-20T03:08:51.280Z,6.38
2016-11-20T03:09:51.294Z,6.49
2016-11-20T03:10:51.312Z,6.41
2016-11-20T03:11:51.636Z,6.36
2016-11-20T03:12:51.021Z,6.36
2016-11-20T03:13:51.367Z,6.39
2016-11-20T03:14:51.058Z,6.45
2016-11-20T03:15:51.070Z,6.41
2016-11-20T03:16:51.394Z,6.59
2016-11-20T03:17:51.095Z,6.54
2016-11-20T03:18:51.109Z,6.42
2016-11-20T03:19:51.121Z,6.44
2016-11-20T03:20:51.458Z,6.41
2016-11-20T03:21:51.154Z,6.38
2016-11-20T03:22:51.797Z,6.24
2016-11-20T03:23:51.502Z,6.2
2016-11-20T03:24:51.199Z,6.31
2016-11-20T03:25:51.210Z,6.33
2016-11-20T03:26:51.227Z,6.46
2016-11-20T03:27:51.556Z,6.54
2016-11-20T03:28:51.261Z,6.36
2016-11-20T03:29:51.585Z,6.38
2016-11-20T03:30:51.601Z,6.42
2016-11-20T03:31:51.935Z,6.39
2016-11-20T03:32:51.630Z,6.31
2016-11-20T03:33:51.643Z,6.46
2016-11-20T03:34:51.346Z,6.48
2016-11-20T03:35:51.361Z,6.46
2016-11-20T03:36:51.374Z,6.52
2016-11-20T03:37:52.021Z,6.28
2016-11-20T03:38:51.749Z,6.36
2016-11-20T03:39:51.420Z,6.36
2016-11-20T03:40:51.437Z,6.35
2016-11-20T03:41:51.455Z,6.41
2016-11-20T03:42:52.096Z,6.36
2016-11-20T03:43:51.795Z,6.39
2016-11-20T03:44:51.500Z,6.39
2016-11-20T03:45:51.827Z,6.49
2016-11-20T03:46:51.844Z,6.26
2016-11-20T03:47:52.169Z,6.14
2016-11-20T03:48:51.870Z,6.09
2016-11-20T03:49:51.893Z,6.12
2016-11-20T03:50:51.895Z,6.12
2016-11-20T03:51:52.227Z,6.09
2016-11-20T03:52:51.922Z,6.28
2016-11-20T03:53:51.940Z,6.28
2016-11-20T03:54:51.954Z,6.3
2016-11-20T03:55:52.286Z,6.33
2016-11-20T03:56:51.669Z,6.35
2016-11-20T03:57:52.001Z,6.38
2016-11-20T03:58:51.694Z,6.3
2016-11-20T03:59:52.026Z,6.38
2016-11-20T04:00:52.040Z,6.46
2016-11-20T04:01:51.743Z,6.45
2016-11-20T04:02:52.066Z,6.44
2016-11-20T04:03:52.396Z,6.48
2016-11-20T04:04:51.800Z,6.44
2016-11-20T04:05:51.812Z,6.35
2016-11-20T04:06:52.129Z,6.26
2016-11-20T04:07:52.141Z,6.12
2016-11-20T04:08:51.842Z,6.3
2016-11-20T04:09:51.858Z,6.28
2016-11-20T04:10:52.508Z,6.35
2016-11-20T04:11:52.238Z,6.35
2016-11-20T04:12:52.219Z,6.41
2016-11-20T04:13:51.921Z,6.49
2016-11-20T04:14:52.248Z,6.56
2016-11-20T04:15:52.258Z,6.44
2016-11-20T04:16:52.274Z,6.28
2016-11-20T04:17:52.604Z,6.27
2016-11-20T04:18:51.995Z,6.39
2016-11-20T04:19:52.319Z,6.22
2016-11-20T04:20:52.336Z,6.09
2016-11-20T04:21:52.033Z,6.08
2016-11-20T04:22:52.362Z,6.11
2016-11-20T04:23:52.064Z,6.22
2016-11-20T04:24:52.398Z,6.39
2016-11-20T04:25:52.093Z,6.36
2016-11-20T04:26:52.419Z,6.51
2016-11-20T04:27:52.124Z,6.52
2016-11-20T04:28:52.450Z,6.38
2016-11-20T04:29:52.470Z,6.28
2016-11-20T04:30:52.801Z,6.19
2016-11-20T04:31:52.808Z,6.33
2016-11-20T04:32:52.509Z,6.42
2016-11-20T04:33:52.529Z,6.46
2016-11-20T04:34:52.855Z,6.41
2016-11-20T04:35:52.869Z,6.27
2016-11-20T04:36:52.668Z,6.07
2016-11-20T04:37:52.599Z,6.24
2016-11-20T04:38:52.593Z,6.3
2016-11-20T04:39:52.615Z,6.22
2016-11-20T04:40:52.629Z,6.24
2016-11-20T04:41:52.639Z,6.12
2016-11-20T04:42:52.654Z,6.08
2016-11-20T04:43:52.353Z,6.09
2016-11-20T04:44:53.000Z,6.12
2016-11-20T04:45:52.386Z,6.07
2016-11-20T04:46:53.031Z,6.02
2016-11-20T04:47:52.731Z,6.11
2016-11-20T04:48:52.745Z,6.11
2016-11-20T04:49:52.443Z,6.07
2016-11-20T04:50:52.772Z,6.08
2016-11-20T04:51:52.787Z,6.14
2016-11-20T04:52:52.482Z,6.14
2016-11-20T04:53:52.505Z,6.09
2016-11-20T04:54:52.515Z,6.08
2016-11-20T04:55:52.876Z,6.08
2016-11-20T04:56:52.860Z,6.2
2016-11-20T04:57:52.875Z,6.2
2016-11-20T04:58:52.890Z,6.28
2016-11-20T04:59:52.903Z,6.35
2016-11-20T05:00:52.918Z,6.3
2016-11-20T05:01:53.248Z,6.38
2016-11-20T05:02:53.154Z,6.38
2016-11-20T05:03:52.961Z,6.48
2016-11-20T05:04:52.974Z,6.49
2016-11-20T05:05:52.674Z,6.51
2016-11-20T05:06:52.690Z,6.46
2016-11-20T05:07:53.019Z,6.48
2016-11-20T05:08:53.351Z,6.38
2016-11-20T05:09:52.746Z,6.48
2016-11-20T05:10:53.067Z,6.56
2016-11-20T05:11:53.390Z,6.52
2016-11-20T05:12:53.407Z,6.48
2016-11-20T05:13:53.419Z,6.45
2016-11-20T05:14:52.804Z,6.45
2016-11-20T05:15:53.455Z,6.63
2016-11-20T05:16:53.157Z,6.49
2016-11-20T05:17:52.849Z,6.52
2016-11-20T05:18:52.868Z,6.41
2016-11-20T05:19:53.194Z,6.42
2016-11-20T05:20:53.217Z,6.39
2016-11-20T05:21:52.907Z,6.33
2016-11-20T05:22:53.231Z,6.38
2016-11-20T05:23:52.933Z,6.28
2016-11-20T05:24:53.278Z,6.27
2016-11-20T05:25:52.976Z,6.22
2016-11-20T05:26:52.988Z,6.28
2016-11-20T05:27:52.995Z,6.24
2016-11-20T05:28:53.353Z,6.26
2016-11-20T05:29:53.026Z,6.27
2016-11-20T05:30:53.036Z,6.24
2016-11-20T05:31:53.055Z,6.36
2016-11-20T05:32:53.066Z,6.31
2016-11-20T05:33:53.080Z,6.2
2016-11-20T05:34:53.419Z,6.08
2016-11-20T05:35:53.431Z,6.04
2016-11-20T05:36:53.125Z,6.04
2016-11-20T05:37:53.139Z,6.11
2016-11-20T05:38:53.469Z,6.05
2016-11-20T05:39:53.169Z,6.02
2016-11-20T05:40:53.499Z,5.93
2016-11-20T05:41:53.197Z,5.89
2016-11-20T05:42:53.212Z,5.76
2016-11-20T05:43:53.860Z,5.91
2016-11-20T05:44:53.590Z,5.98
2016-11-20T05:45:53.889Z,5.94
2016-11-20T05:46:53.270Z,6.07
2016-11-20T05:47:53.282Z,6.16
2016-11-20T05:48:53.617Z,6.12
2016-11-20T05:49:53.941Z,6.05
2016-11-20T05:50:53.653Z,6.01
2016-11-20T05:51:53.974Z,5.97
2016-11-20T05:52:53.674Z,6.01
2016-11-20T05:53:53.688Z,6.05
2016-11-20T05:54:53.702Z,6.11
2016-11-20T05:55:54.034Z,6.09
2016-11-20T05:56:53.732Z,6.05
2016-11-20T05:57:53.428Z,5.98
2016-11-20T05:58:53.762Z,5.91
2016-11-20T05:59:54.095Z,6.02
2016-11-20T06:00:53.471Z,5.97
2016-11-20T06:01:53.807Z,6.04
2016-11-20T06:02:53.816Z,6.01
2016-11-20T06:03:53.512Z,6.01
2016-11-20T06:04:54.164Z,6.08
2016-11-20T06:05:53.865Z,6.07
2016-11-20T06:06:53.593Z,6.12
2016-11-20T06:07:54.238Z,6.08
2016-11-20T06:08:53.900Z,6.16
2016-11-20T06:09:54.232Z,6.27
2016-11-20T06:10:53.929Z,6.26
2016-11-20T06:11:54.261Z,6.33
2016-11-20T06:12:53.983Z,6.31
2016-11-20T06:13:53.978Z,6.45
2016-11-20T06:14:53.673Z,6.35
2016-11-20T06:15:53.690Z,6.44
2016-11-20T06:16:53.702Z,6.42
2016-11-20T06:17:53.715Z,6.38
2016-11-20T06:18:53.734Z,6.24
2016-11-20T06:19:53.748Z,6.17
2016-11-20T06:20:54.073Z,6.27
2016-11-20T06:21:54.413Z,6.27
2016-11-20T06:22:54.422Z,6.24
2016-11-20T06:23:53.809Z,6.16
2016-11-20T06:24:54.136Z,6.11
2016-11-20T06:25:53.843Z,6.11
2016-11-20T06:26:54.174Z,6.14
2016-11-20T06:27:53.866Z,5.98
2016-11-20T06:28:54.201Z,6.02
2016-11-20T06:29:54.227Z,6.11
2016-11-20T06:30:54.536Z,6.09
2016-11-20T06:31:54.237Z,6.14
2016-11-20T06:32:53.935Z,6.31
2016-11-20T06:33:53.962Z,6.35
2016-11-20T06:34:53.964Z,6.38
2016-11-20T06:35:54.297Z,6.31
2016-11-20T06:36:54.636Z,6.31
2016-11-20T06:37:54.328Z,6.28
2016-11-20T06:38:54.339Z,6.28
2016-11-20T06:39:54.352Z,6.12
2016-11-20T06:40:54.368Z,6.2
2016-11-20T06:41:54.069Z,6.22
2016-11-20T06:42:54.745Z,6.26
2016-11-20T06:43:54.411Z,6.28
2016-11-20T06:44:54.453Z,6.24
2016-11-20T06:45:54.446Z,6.26
2016-11-20T06:46:54.456Z,6.24
2016-11-20T06:47:54.790Z,6.24
2016-11-20T06:48:54.168Z,6.35
2016-11-20T06:49:54.500Z,6.41
2016-11-20T06:50:54.826Z,6.46
2016-11-20T06:51:54.532Z,6.45
2016-11-20T06:52:54.858Z,6.44
2016-11-20T06:53:54.559Z,6.49
2016-11-20T06:54:54.890Z,6.44
2016-11-20T06:55:54.585Z,6.36
2016-11-20T06:56:54.605Z,6.36
2016-11-20T06:57:54.625Z,6.19
2016-11-20T06:58:54.640Z,6.28
2016-11-20T06:59:54.335Z,6.16
2016-11-20T07:00:54.662Z,6.2
2016-11-20T07:01:54.675Z,6.36
2016-11-20T07:02:54.686Z,6.49
2016-11-20T07:03:55.020Z,6.52
2016-11-20T07:04:54.401Z,6.57
2016-11-20T07:05:55.054Z,6.66
2016-11-20T07:06:54.429Z,6.64
2016-11-20T07:07:54.763Z,6.64
2016-11-20T07:08:55.091Z,6.64
2016-11-20T07:09:54.476Z,6.7
2016-11-20T07:10:55.121Z,6.56
2016-11-20T07:11:55.182Z,6.56
2016-11-20T07:12:54.835Z,6.59
2016-11-20T07:13:54.859Z,6.64
2016-11-20T07:14:54.866Z,6.74
2016-11-20T07:15:54.880Z,6.82
2016-11-20T07:16:55.218Z,6.79
2016-11-20T07:17:55.224Z,6.77
2016-11-20T07:18:55.246Z,6.69
2016-11-20T07:19:54.941Z,6.87
2016-11-20T07:20:55.265Z,6.92
2016-11-20T07:21:55.286Z,6.81
2016-11-20T07:22:54.989Z,6.87
2016-11-20T07:24:09.580Z,6.81
2016-11-20T07:24:55.011Z,6.78
2016-11-20T07:25:55.031Z,6.79
2016-11-20T07:26:55.365Z,6.78
2016-11-20T07:27:55.062Z,6.87
2016-11-20T07:28:55.078Z,6.99
2016-11-20T07:29:55.405Z,6.92
2016-11-20T07:30:55.107Z,6.96
2016-11-20T07:31:55.435Z,6.95
2016-11-20T07:32:55.160Z,7.05
2016-11-20T07:33:54.832Z,7.1
2016-11-20T07:34:54.843Z,7.18
2016-11-20T07:35:55.176Z,7.17
2016-11-20T07:36:54.881Z,7.28
2016-11-20T07:37:55.210Z,7.35
2016-11-20T07:38:54.909Z,7.35
2016-11-20T07:39:55.237Z,7.28
2016-11-20T07:40:55.255Z,7.13
2016-11-20T07:41:54.955Z,7.07
2016-11-20T07:42:55.284Z,7.23
2016-11-20T07:43:54.987Z,7.18
2016-11-20T07:44:55.002Z,7.29
2016-11-20T07:45:55.651Z,7.29
2016-11-20T07:46:55.346Z,7.31
2016-11-20T07:47:55.359Z,7.35
2016-11-20T07:48:55.057Z,7.47
2016-11-20T07:49:55.399Z,7.42
2016-11-20T07:50:55.407Z,7.38
2016-11-20T07:51:55.417Z,7.31
2016-11-20T07:52:55.437Z,7.31
2016-11-20T07:53:55.454Z,7.21
2016-11-20T07:54:55.147Z,7.2
2016-11-20T07:55:55.480Z,7.35
2016-11-20T07:56:55.811Z,7.28
2016-11-20T07:57:55.513Z,7.32
2016-11-20T07:58:55.213Z,7.35
2016-11-20T07:59:55.548Z,7.39
2016-11-20T08:00:55.242Z,7.36
2016-11-20T08:01:55.580Z,7.43
2016-11-20T08:02:55.588Z,7.48
2016-11-20T08:03:55.930Z,7.5
2016-11-20T08:04:55.619Z,7.66
2016-11-20T08:05:55.635Z,7.72
2016-11-20T08:06:55.966Z,7.79
2016-11-20T08:07:55.351Z,7.79
2016-11-20T08:08:55.690Z,7.85
2016-11-20T08:09:55.695Z,7.91
2016-11-20T08:10:55.707Z,8.01
2016-11-20T08:11:56.059Z,8.1
2016-11-20T08:12:55.752Z,8.15
2016-11-20T08:13:55.758Z,8.12
2016-11-20T08:14:55.454Z,8.01
2016-11-20T08:15:55.790Z,8.08
2016-11-20T08:16:56.116Z,8.18
2016-11-20T08:17:55.818Z,8.16
2016-11-20T08:18:55.831Z,8.23
2016-11-20T08:19:55.852Z,8.28
2016-11-20T08:20:55.865Z,8.31
2016-11-20T08:21:55.881Z,8.42
2016-11-20T08:22:55.900Z,8.58
2016-11-20T08:23:55.914Z,8.71
2016-11-20T08:24:55.928Z,8.6
2016-11-20T08:25:56.274Z,8.67
2016-11-20T08:26:56.279Z,8.58
2016-11-20T08:27:55.982Z,8.66
2016-11-20T08:28:55.990Z,8.69
2016-11-20T08:29:56.024Z,8.71
2016-11-20T08:30:56.035Z,8.69
2016-11-20T08:31:56.359Z,8.63
2016-11-20T08:32:55.740Z,8.66
2016-11-20T08:33:55.773Z,8.66
2016-11-20T08:34:56.400Z,8.71
2016-11-20T08:35:56.101Z,8.7
2016-11-20T08:36:55.806Z,8.66
2016-11-20T08:37:55.823Z,8.69
2016-11-20T08:38:56.152Z,8.69
2016-11-20T08:39:56.488Z,8.71
2016-11-20T08:40:56.184Z,8.82
2016-11-20T08:41:56.201Z,8.81
2016-11-20T08:42:56.533Z,8.91
2016-11-20T08:43:55.916Z,8.99
2016-11-20T08:44:56.257Z,9.22
2016-11-20T08:45:55.948Z,9.16
2016-11-20T08:46:56.281Z,9.23
2016-11-20T08:47:56.303Z,9.36
2016-11-20T08:48:56.309Z,9.51
2016-11-20T08:49:56.331Z,9.66
2016-11-20T08:50:56.349Z,9.83
2016-11-20T08:51:56.683Z,9.87
2016-11-20T08:52:56.379Z,9.95
2016-11-20T08:53:56.087Z,10.02
2016-11-20T08:54:56.416Z,10.16
2016-11-20T08:55:56.436Z,10.19
2016-11-20T08:56:56.132Z,10.37
2016-11-20T08:57:56.484Z,10.49
2016-11-20T08:58:56.800Z,10.41
2016-11-20T08:59:56.181Z,10.4
2016-11-20T09:00:56.199Z,10.6
2016-11-20T09:01:56.218Z,10.69
2016-11-20T09:02:56.580Z,10.84
2016-11-20T09:03:56.272Z,10.9
2016-11-20T09:04:56.286Z,10.84
2016-11-20T09:05:56.603Z,10.78
2016-11-20T09:06:56.622Z,10.78
2016-11-20T09:07:56.660Z,10.86
2016-11-20T09:08:56.335Z,10.74
2016-11-20T09:09:56.669Z,10.86
2016-11-20T09:10:56.685Z,10.82
2016-11-20T09:11:57.023Z,10.9
2016-11-20T09:12:56.421Z,11.11
2016-11-20T09:13:56.426Z,11.44
2016-11-20T09:14:56.764Z,11.44
2016-11-20T09:15:57.094Z,11.63
2016-11-20T09:16:57.110Z,11.36
2016-11-20T09:17:56.498Z,11.27
2016-11-20T09:18:57.152Z,11.23
2016-11-20T09:19:56.536Z,11.4
2016-11-20T09:20:56.868Z,11.62
2016-11-20T09:21:56.887Z,11.8
2016-11-20T09:23:11.480Z,11.86
2016-11-20T09:23:56.615Z,11.83
2016-11-20T09:24:56.947Z,12.03
2016-11-20T09:25:56.645Z,12.1
2016-11-20T09:26:56.978Z,12.29
2016-11-20T09:27:57.020Z,12.37
2016-11-20T09:28:57.019Z,12.46
2016-11-20T09:29:57.036Z,12.6
2016-11-20T09:30:57.367Z,12.76
2016-11-20T09:31:57.392Z,12.78
2016-11-20T09:32:56.774Z,12.93
2016-11-20T09:33:56.794Z,12.94
2016-11-20T09:34:56.810Z,12.94
2016-11-20T09:35:56.834Z,13
2016-11-20T09:36:56.853Z,13.04
2016-11-20T09:37:56.874Z,13.01
2016-11-20T09:38:57.544Z,12.95
2016-11-20T09:39:57.222Z,12.82
2016-11-20T09:40:57.244Z,12.72
2016-11-20T09:41:56.947Z,12.76
2016-11-20T09:42:56.983Z,12.78
2016-11-20T09:43:57.615Z,12.8
2016-11-20T09:44:57.002Z,12.83
2016-11-20T09:45:57.023Z,12.97
2016-11-20T09:46:57.043Z,12.68
2016-11-20T09:47:57.378Z,12.68
2016-11-20T09:48:57.398Z,12.46
2016-11-20T09:49:57.097Z,12.64
2016-11-20T09:50:57.139Z,12.82
2016-11-20T09:51:57.455Z,13.03
2016-11-20T09:52:57.469Z,13.04
2016-11-20T09:53:57.177Z,13.16
2016-11-20T09:54:57.196Z,13.31
2016-11-20T09:55:57.851Z,13.5
2016-11-20T09:56:57.567Z,13.35
2016-11-20T09:57:57.883Z,13.27
2016-11-20T09:58:57.283Z,13.63
2016-11-20T09:59:57.307Z,13.59
2016-11-20T10:00:57.946Z,13.77
2016-11-20T10:01:57.964Z,13.87
2016-11-20T10:02:57.985Z,13.9
2016-11-20T10:03:57.689Z,14.05
2016-11-20T10:04:57.409Z,13.97
2016-11-20T10:05:57.727Z,13.99
2016-11-20T10:06:57.749Z,14.03
2016-11-20T10:07:58.083Z,14.15
2016-11-20T10:08:57.474Z,14.18
2016-11-20T10:09:58.124Z,14.28
2016-11-20T10:10:57.837Z,14.33
2016-11-20T10:11:57.851Z,14.37
2016-11-20T10:12:57.866Z,14.51
2016-11-20T10:13:57.569Z,14.51
2016-11-20T10:14:57.592Z,14.55
2016-11-20T10:15:58.245Z,14.63
2016-11-20T10:16:58.265Z,14.63
2016-11-20T10:17:58.307Z,14.65
2016-11-20T10:18:58.002Z,14.78
2016-11-20T10:19:58.323Z,14.68
2016-11-20T10:20:58.027Z,14.6
2016-11-20T10:21:58.375Z,14.77
2016-11-20T10:22:58.067Z,14.35
2016-11-20T10:23:57.773Z,14.35
2016-11-20T10:24:58.111Z,14.15
2016-11-20T10:25:58.479Z,14.07
2016-11-20T10:26:57.834Z,13.99
2016-11-20T10:27:58.488Z,13.99
2016-11-20T10:28:58.507Z,13.95
2016-11-20T10:29:58.527Z,13.99
2016-11-20T10:30:58.240Z,13.99
2016-11-20T10:31:58.567Z,13.96
2016-11-20T10:32:58.288Z,13.9
2016-11-20T10:33:57.987Z,14.17
2016-11-20T10:34:58.638Z,14.15
2016-11-20T10:35:58.021Z,14.25
2016-11-20T10:36:58.359Z,14.33
2016-11-20T10:37:58.066Z,14.51
2016-11-20T10:38:58.397Z,14.63
2016-11-20T10:39:58.108Z,14.62
2016-11-20T10:40:58.437Z,14.5
2016-11-20T10:41:58.144Z,14.65
2016-11-20T10:42:58.167Z,14.63
2016-11-20T10:43:58.813Z,14.82
2016-11-20T10:44:58.206Z,14.88
2016-11-20T10:45:58.566Z,14.92
2016-11-20T10:46:58.562Z,14.81
2016-11-20T10:47:58.270Z,14.58
2016-11-20T10:48:58.304Z,14.77
2016-11-20T10:49:58.627Z,14.85
2016-11-20T10:50:58.645Z,14.94
2016-11-20T10:51:58.665Z,14.92
2016-11-20T10:52:59.025Z,14.85
2016-11-20T10:53:58.722Z,14.89
2016-11-20T10:54:58.413Z,15.11
2016-11-20T10:55:58.749Z,15.17
2016-11-20T10:56:59.100Z,15.22
2016-11-20T10:57:58.794Z,15.24
2016-11-20T10:58:58.498Z,15.33
2016-11-20T10:59:58.522Z,15.21
2016-11-20T11:00:58.536Z,15.33
2016-11-20T11:01:58.554Z,15.43
2016-11-20T11:02:59.210Z,15.44
2016-11-20T11:03:59.245Z,15.55
2016-11-20T11:04:58.937Z,15.61
2016-11-20T11:05:58.955Z,15.52
2016-11-20T11:06:58.975Z,15.55
2016-11-20T11:07:59.003Z,15.59
2016-11-20T11:08:58.702Z,15.68
2016-11-20T11:09:59.044Z,15.49
2016-11-20T11:10:59.061Z,15.35
2016-11-20T11:11:59.089Z,15.24
2016-11-20T11:12:58.785Z,15.22
2016-11-20T11:13:58.824Z,15.36
2016-11-20T11:14:59.148Z,15.31
2016-11-20T11:15:59.170Z,15.35
2016-11-20T11:16:58.872Z,15.52
2016-11-20T11:17:58.894Z,15.55
2016-11-20T11:18:59.237Z,15.42
2016-11-20T11:19:58.934Z,15.49
2016-11-20T11:20:59.287Z,15.57
2016-11-20T11:21:59.298Z,15.7
2016-11-20T11:22:59.311Z,15.65
2016-11-20T11:23:59.346Z,15.68
2016-11-20T11:24:59.353Z,15.65
2016-11-20T11:25:59.378Z,15.76
2016-11-20T11:26:59.399Z,15.88
2016-11-20T11:27:59.431Z,15.83
2016-11-20T11:28:59.440Z,15.91
2016-11-20T11:29:59.148Z,15.9
2016-11-20T11:30:59.510Z,15.92
2016-11-20T11:31:59.185Z,15.75
2016-11-20T11:32:59.524Z,15.73
2016-11-20T11:33:59.553Z,15.73
2016-11-20T11:34:59.574Z,15.76
2016-11-20T11:35:59.585Z,15.67
2016-11-20T11:36:59.615Z,15.68
2016-11-20T11:37:59.316Z,15.57
2016-11-20T11:38:59.970Z,15.72
2016-11-20T11:39:59.674Z,15.55
2016-11-20T11:40:59.720Z,15.62
2016-11-20T11:41:59.715Z,15.57
2016-11-20T11:42:59.429Z,15.58
2016-11-20T11:43:59.760Z,15.51
2016-11-20T11:44:59.785Z,15.49
2016-11-20T11:45:59.484Z,15.59
2016-11-20T11:46:59.505Z,15.76
2016-11-20T11:47:59.555Z,15.8
2016-11-20T11:48:59.865Z,15.92
2016-11-20T11:49:59.901Z,15.98
2016-11-20T11:50:59.645Z,15.95
2016-11-20T11:51:59.661Z,15.79
2016-11-20T11:52:59.634Z,15.91
2016-11-20T11:53:59.982Z,16
2016-11-20T11:55:00.005Z,15.98
2016-11-20T11:56:00.068Z,15.95
2016-11-20T11:56:59.717Z,15.97
2016-11-20T11:58:00.379Z,16.08
2016-11-20T11:58:59.774Z,16.05
2016-11-20T12:00:00.417Z,16.12
2016-11-20T12:01:00.440Z,16.17
2016-11-20T12:01:59.829Z,16.23
2016-11-20T12:03:00.478Z,16.2
2016-11-20T12:04:00.193Z,16.16
2016-11-20T12:05:00.216Z,16.23
2016-11-20T12:06:00.232Z,16.32
2016-11-20T12:07:00.255Z,16.43
2016-11-20T12:08:00.586Z,16.38
2016-11-20T12:09:00.296Z,16.39
2016-11-20T12:10:00.315Z,16.42
2016-11-20T12:11:00.660Z,16.33
2016-11-20T12:12:00.696Z,16.36
2016-11-20T12:13:00.722Z,16.43
2016-11-20T12:14:00.403Z,16.42
2016-11-20T12:15:00.423Z,16.46
2016-11-20T12:17:00.151Z,16.53
2016-11-20T12:18:00.507Z,16.42
2016-11-20T12:19:00.837Z,16.41
2016-11-20T12:20:00.537Z,16.2
2016-11-20T12:21:00.563Z,16.17
2016-11-20T12:22:00.893Z,16.2
2016-11-20T12:23:00.600Z,16.17
2016-11-20T12:24:00.310Z,16.33
2016-11-20T12:25:00.644Z,16.38
2016-11-20T12:26:00.676Z,16.5
2016-11-20T12:27:01.244Z,16.53
2016-11-20T12:28:00.395Z,16.66
2016-11-20T12:29:00.430Z,16.65
2016-11-20T12:30:01.065Z,16.69
2016-11-20T12:31:00.773Z,16.54
2016-11-20T12:32:00.796Z,16.54
2016-11-20T12:33:01.340Z,16.5
2016-11-20T12:34:01.152Z,16.61
2016-11-20T12:35:01.184Z,16.68
2016-11-20T12:36:01.205Z,16.64
2016-11-20T12:37:00.600Z,16.57
2016-11-20T12:38:00.923Z,16.6
2016-11-20T12:39:01.262Z,16.66
2016-11-20T12:40:01.285Z,16.6
2016-11-20T12:41:01.007Z,16.65
2016-11-20T12:42:00.703Z,16.56
2016-11-20T12:43:00.724Z,16.53
2016-11-20T12:44:00.745Z,16.5
2016-11-20T12:45:01.396Z,16.53
2016-11-20T12:46:01.096Z,16.54
2016-11-20T12:47:00.807Z,16.64
2016-11-20T12:48:00.823Z,16.53
2016-11-20T12:49:01.167Z,16.65
2016-11-20T12:50:01.195Z,16.64
2016-11-20T12:51:01.529Z,16.66
2016-11-20T12:52:01.547Z,16.78
2016-11-20T12:53:00.938Z,16.76
2016-11-20T12:54:01.274Z,16.87
2016-11-20T12:55:01.298Z,16.96
2016-11-20T12:56:01.634Z,17.15
2016-11-20T12:57:01.660Z,17.14
2016-11-20T12:58:01.045Z,17.3
2016-11-20T12:59:01.721Z,17.42
2016-11-20T13:00:01.097Z,17.33
2016-11-20T13:01:01.433Z,17.33
2016-11-20T13:02:01.455Z,17.39
2016-11-20T13:03:01.471Z,17.41
2016-11-20T13:04:01.505Z,17.46
2016-11-20T13:05:01.513Z,17.54
2016-11-20T13:06:01.871Z,17.56
2016-11-20T13:07:01.563Z,17.57
2016-11-20T13:08:01.583Z,17.49
2016-11-20T13:09:01.610Z,17.54
2016-11-20T13:10:01.626Z,17.68
2016-11-20T13:11:01.332Z,17.68
2016-11-20T13:12:01.673Z,17.72
2016-11-20T13:13:02.010Z,17.92